sensor_id;sensor_type;location;lat;lon;timestamp;pressure;altitude;pressure_sealevel;temperature;humidity
31337;BME280;22846;42.654;23.314;2023-04-08T00:00:20;94534.94;;;25.60;49.44
31337;BME280;22846;42.654;23.314;2023-04-08T00:02:45;94548.22;;;25.70;49.46
31337;BME280;22846;42.654;23.314;2023-04-08T00:05:11;94551.72;;;25.70;49.48
31337;BME280;22846;42.654;23.314;2023-04-08T00:07:36;94551.72;;;25.70;49.43
31337;BME280;22846;42.654;23.314;2023-04-08T00:10:03;94553.69;;;25.70;49.71
31337;BME280;22846;42.654;23.314;2023-04-08T00:12:28;94544.88;;;25.66;49.62
31337;BME280;22846;42.654;23.314;2023-04-08T00:14:54;94557.97;;;25.71;49.78
31337;BME280;22846;42.654;23.314;2023-04-08T00:17:19;94539.63;;;25.59;49.56
31337;BME280;22846;42.654;23.314;2023-04-08T00:19:45;94545.63;;;25.66;49.56
31337;BME280;22846;42.654;23.314;2023-04-08T00:22:10;94553.38;;;25.68;49.76
31337;BME280;22846;42.654;23.314;2023-04-08T00:24:36;94549.75;;;25.71;49.71
31337;BME280;22846;42.654;23.314;2023-04-08T00:27:01;94547.47;;;25.69;49.68
31337;BME280;22846;42.654;23.314;2023-04-08T00:29:27;94554.47;;;25.70;49.58
31337;BME280;22846;42.654;23.314;2023-04-08T00:31:53;94552.47;;;25.71;49.77
31337;BME280;22846;42.654;23.314;2023-04-08T00:34:19;94545.94;;;25.68;49.41
31337;BME280;22846;42.654;23.314;2023-04-08T00:36:45;94558.72;;;25.71;49.69
31337;BME280;22846;42.654;23.314;2023-04-08T00:39:12;94555.97;;;25.71;49.49
31337;BME280;22846;42.654;23.314;2023-04-08T00:41:37;94546.38;;;25.67;49.36
31337;BME280;22846;42.654;23.314;2023-04-08T00:44:03;94557.22;;;25.70;49.65
31337;BME280;22846;42.654;23.314;2023-04-08T00:46:29;94555.69;;;25.69;49.71
31337;BME280;22846;42.654;23.314;2023-04-08T00:48:55;94555.69;;;25.69;49.55
31337;BME280;22846;42.654;23.314;2023-04-08T00:51:20;94551.41;;;25.68;49.58
31337;BME280;22846;42.654;23.314;2023-04-08T00:53:46;94543.31;;;25.65;49.47
31337;BME280;22846;42.654;23.314;2023-04-08T00:56:11;94554.47;;;25.70;49.64
31337;BME280;22846;42.654;23.314;2023-04-08T00:58:37;94555.34;;;25.67;49.50
31337;BME280;22846;42.654;23.314;2023-04-08T01:01:13;94555.69;;;25.69;49.51
31337;BME280;22846;42.654;23.314;2023-04-08T01:03:46;94562.69;;;25.70;49.55
31337;BME280;22846;42.654;23.314;2023-04-08T01:08:51;94572.53;;;25.68;49.36
31337;BME280;22846;42.654;23.314;2023-04-08T01:11:17;94545.88;;;25.60;49.61
31337;BME280;22846;42.654;23.314;2023-04-08T01:13:45;94549.81;;;25.59;49.27
31337;BME280;22846;42.654;23.314;2023-04-08T01:16:13;94566.16;;;25.71;49.53
31337;BME280;22846;42.654;23.314;2023-04-08T01:18:41;94552.88;;;25.61;49.45
31337;BME280;22846;42.654;23.314;2023-04-08T01:21:08;94567.38;;;25.70;49.48
31337;BME280;22846;42.654;23.314;2023-04-08T01:23:45;94568.91;;;25.71;49.62
31337;BME280;22846;42.654;23.314;2023-04-08T01:26:22;94563.56;;;25.67;49.59
31337;BME280;22846;42.654;23.314;2023-04-08T01:28:51;94568.91;;;25.71;49.36
31337;BME280;22846;42.654;23.314;2023-04-08T01:31:18;94560.25;;;25.72;49.53
31337;BME280;22846;42.654;23.314;2023-04-08T01:33:44;94557.97;;;25.71;49.31
31337;BME280;22846;42.654;23.314;2023-04-08T01:36:11;94559.63;;;25.68;49.25
31337;BME280;22846;42.654;23.314;2023-04-08T01:38:37;94562.69;;;25.70;49.68
31337;BME280;22846;42.654;23.314;2023-04-08T01:41:04;94557.97;;;25.71;49.39
31337;BME280;22846;42.654;23.314;2023-04-08T01:43:30;94556.28;;;25.73;49.19
31337;BME280;22846;42.654;23.314;2023-04-08T01:45:59;94554.69;;;25.63;49.47
31337;BME280;22846;42.654;23.314;2023-04-08T01:48:26;94558.84;;;25.68;49.17
31337;BME280;22846;42.654;23.314;2023-04-08T01:50:53;94562.53;;;25.74;49.48
31337;BME280;22846;42.654;23.314;2023-04-08T01:53:20;94562.53;;;25.74;49.25
31337;BME280;22846;42.654;23.314;2023-04-08T01:55:48;94564.97;;;25.72;49.11
31337;BME280;22846;42.654;23.314;2023-04-08T01:58:19;94547.41;;;25.61;49.12
31337;BME280;22846;42.654;23.314;2023-04-08T02:00:45;94570.44;;;25.72;49.10
31337;BME280;22846;42.654;23.314;2023-04-08T02:03:12;94573.16;;;25.72;49.13
31337;BME280;22846;42.654;23.314;2023-04-08T02:05:39;94561.84;;;25.61;49.26
31337;BME280;22846;42.654;23.314;2023-04-08T02:08:05;94579.09;;;25.70;49.14
31337;BME280;22846;42.654;23.314;2023-04-08T02:10:30;94581.84;;;25.70;48.94
31337;BME280;22846;42.654;23.314;2023-04-08T02:12:56;94569.72;;;25.59;49.29
31337;BME280;22846;42.654;23.314;2023-04-08T02:15:22;94581.72;;;25.74;49.39
31337;BME280;22846;42.654;23.314;2023-04-08T02:18:20;94585.66;;;25.73;49.01
31337;BME280;22846;42.654;23.314;2023-04-08T02:20:49;94591.13;;;25.73;49.07
31337;BME280;22846;42.654;23.314;2023-04-08T02:23:23;94587.59;;;25.72;49.15
31337;BME280;22846;42.654;23.314;2023-04-08T02:25:51;94573.13;;;25.63;49.02
31337;BME280;22846;42.654;23.314;2023-04-08T02:28:18;94592.34;;;25.72;48.89
31337;BME280;22846;42.654;23.314;2023-04-08T02:30:49;94587.59;;;25.72;49.29
31337;BME280;22846;42.654;23.314;2023-04-08T02:33:18;94584.88;;;25.72;49.06
31337;BME280;22846;42.654;23.314;2023-04-08T02:35:47;94592.34;;;25.72;48.94
31337;BME280;22846;42.654;23.314;2023-04-08T02:38:12;94580.31;;;25.69;49.18
31337;BME280;22846;42.654;23.314;2023-04-08T02:40:38;94589.13;;;25.73;49.01
31337;BME280;22846;42.654;23.314;2023-04-08T02:43:04;94590.81;;;25.71;48.95
31337;BME280;22846;42.654;23.314;2023-04-08T02:45:31;94588.38;;;25.73;48.82
31337;BME280;22846;42.654;23.314;2023-04-08T02:48:00;94591.13;;;25.73;48.98
31337;BME280;22846;42.654;23.314;2023-04-08T02:50:26;94589.13;;;25.73;48.82
31337;BME280;22846;42.654;23.314;2023-04-08T02:52:51;94571.44;;;25.65;48.72
31337;BME280;22846;42.654;23.314;2023-04-08T02:55:17;94589.13;;;25.73;49.13
31337;BME280;22846;42.654;23.314;2023-04-08T02:57:45;94588.06;;;25.71;48.90
31337;BME280;22846;42.654;23.314;2023-04-08T03:00:11;94584.88;;;25.72;49.17
31337;BME280;22846;42.654;23.314;2023-04-08T03:02:37;94593.88;;;25.73;48.84
31337;BME280;22846;42.654;23.314;2023-04-08T03:05:02;94584.50;;;25.62;48.69
31337;BME280;22846;42.654;23.314;2023-04-08T03:07:30;94594.63;;;25.73;48.67
31337;BME280;22846;42.654;23.314;2023-04-08T03:09:55;94574.31;;;25.62;48.98
31337;BME280;22846;42.654;23.314;2023-04-08T03:12:21;94596.16;;;25.74;48.83
31337;BME280;22846;42.654;23.314;2023-04-08T03:14:47;94583.66;;;25.73;48.62
31337;BME280;22846;42.654;23.314;2023-04-08T03:17:13;94587.19;;;25.74;48.77
31337;BME280;22846;42.654;23.314;2023-04-08T03:19:38;94574.66;;;25.64;48.80
31337;BME280;22846;42.654;23.314;2023-04-08T03:22:03;94587.94;;;25.74;48.77
31337;BME280;22846;42.654;23.314;2023-04-08T03:24:29;94592.66;;;25.74;48.78
31337;BME280;22846;42.654;23.314;2023-04-08T03:26:55;94581.66;;;25.65;48.63
31337;BME280;22846;42.654;23.314;2023-04-08T03:29:20;94586.75;;;25.75;48.55
31337;BME280;22846;42.654;23.314;2023-04-08T03:31:45;94575.41;;;25.64;48.61
31337;BME280;22846;42.654;23.314;2023-04-08T03:34:11;94596.91;;;25.75;48.67
31337;BME280;22846;42.654;23.314;2023-04-08T03:36:36;94595.72;;;25.76;48.48
31337;BME280;22846;42.654;23.314;2023-04-08T03:39:02;94596.50;;;25.76;48.56
31337;BME280;22846;42.654;23.314;2023-04-08T03:41:28;94584.03;;;25.75;48.61
31337;BME280;22846;42.654;23.314;2023-04-08T03:43:53;94591.41;;;25.75;48.65
31337;BME280;22846;42.654;23.314;2023-04-08T03:46:19;94595.72;;;25.76;48.67
31337;BME280;22846;42.654;23.314;2023-04-08T03:48:44;94592.56;;;25.77;48.62
31337;BME280;22846;42.654;23.314;2023-04-08T03:51:10;94596.03;;;25.78;48.71
31337;BME280;22846;42.654;23.314;2023-04-08T03:53:35;94601.53;;;25.78;48.58
31337;BME280;22846;42.654;23.314;2023-04-08T03:56:00;94595.28;;;25.77;48.43
31337;BME280;22846;42.654;23.314;2023-04-08T03:58:27;94593.31;;;25.78;48.27
31337;BME280;22846;42.654;23.314;2023-04-08T04:00:53;94589.81;;;25.77;48.69
31337;BME280;22846;42.654;23.314;2023-04-08T04:03:18;94570.25;;;25.66;48.45
31337;BME280;22846;42.654;23.314;2023-04-08T04:05:44;94584.34;;;25.77;48.37
31337;BME280;22846;42.654;23.314;2023-04-08T04:08:09;94590.56;;;25.78;48.62
31337;BME280;22846;42.654;23.314;2023-04-08T04:10:34;94589.38;;;25.79;48.43
31337;BME280;22846;42.654;23.314;2023-04-08T04:13:00;94587.09;;;25.77;48.58
31337;BME280;22846;42.654;23.314;2023-04-08T04:15:26;94558.34;;;25.61;48.34
31337;BME280;22846;42.654;23.314;2023-04-08T04:17:51;94592.66;;;25.74;48.33
31337;BME280;22846;42.654;23.314;2023-04-08T04:20:17;94565.91;;;25.57;48.38
31337;BME280;22846;42.654;23.314;2023-04-08T04:22:43;94597.25;;;25.77;48.43
31337;BME280;22846;42.654;23.314;2023-04-08T04:25:08;94603.50;;;25.77;48.25
31337;BME280;22846;42.654;23.314;2023-04-08T04:27:34;94599.63;;;25.75;48.42
31337;BME280;22846;42.654;23.314;2023-04-08T04:30:01;94606.53;;;25.79;48.24
31337;BME280;22846;42.654;23.314;2023-04-08T04:32:26;94602.31;;;25.78;48.17
31337;BME280;22846;42.654;23.314;2023-04-08T04:34:52;94600.00;;;25.77;48.14
31337;BME280;22846;42.654;23.314;2023-04-08T04:37:17;94606.53;;;25.79;48.34
31337;BME280;22846;42.654;23.314;2023-04-08T04:39:43;94583.59;;;25.64;48.40
31337;BME280;22846;42.654;23.314;2023-04-08T04:42:09;94608.06;;;25.80;48.22
31337;BME280;22846;42.654;23.314;2023-04-08T04:44:34;94607.00;;;25.78;48.18
31337;BME280;22846;42.654;23.314;2023-04-08T04:47:00;94606.13;;;25.81;48.42
31337;BME280;22846;42.654;23.314;2023-04-08T04:49:26;94606.13;;;25.81;48.38
31337;BME280;22846;42.654;23.314;2023-04-08T04:51:51;94590.81;;;25.71;48.46
31337;BME280;22846;42.654;23.314;2023-04-08T04:54:16;94617.81;;;25.81;48.06
31337;BME280;22846;42.654;23.314;2023-04-08T04:56:42;94610.38;;;25.82;48.25
31337;BME280;22846;42.654;23.314;2023-04-08T04:59:07;94609.59;;;25.81;47.99
31337;BME280;22846;42.654;23.314;2023-04-08T05:01:33;94610.50;;;25.78;48.08
31337;BME280;22846;42.654;23.314;2023-04-08T05:03:58;94605.78;;;25.79;48.40
31337;BME280;22846;42.654;23.314;2023-04-08T05:06:24;94619.34;;;25.82;48.14
31337;BME280;22846;42.654;23.314;2023-04-08T05:08:51;94614.66;;;25.83;48.24
31337;BME280;22846;42.654;23.314;2023-04-08T05:11:17;94620.88;;;25.83;48.14
31337;BME280;22846;42.654;23.314;2023-04-08T05:13:46;94610.69;;;25.84;47.95
31337;BME280;22846;42.654;23.314;2023-04-08T05:16:12;94616.59;;;25.82;48.18
31337;BME280;22846;42.654;23.314;2023-04-08T05:18:37;94618.13;;;25.83;47.96
31337;BME280;22846;42.654;23.314;2023-04-08T05:21:03;94614.66;;;25.83;48.12
31337;BME280;22846;42.654;23.314;2023-04-08T05:23:28;94613.13;;;25.82;47.83
31337;BME280;22846;42.654;23.314;2023-04-08T05:25:53;94593.09;;;25.72;47.85
31337;BME280;22846;42.654;23.314;2023-04-08T05:28:19;94610.81;;;25.80;47.99
31337;BME280;22846;42.654;23.314;2023-04-08T05:30:51;94611.47;;;25.84;48.04
31337;BME280;22846;42.654;23.314;2023-04-08T05:33:17;94623.94;;;25.85;48.05
31337;BME280;22846;42.654;23.314;2023-04-08T05:35:43;94623.16;;;25.85;48.01
31337;BME280;22846;42.654;23.314;2023-04-08T05:38:08;94600.09;;;25.73;47.81
31337;BME280;22846;42.654;23.314;2023-04-08T05:40:34;94608.72;;;25.84;47.85
31337;BME280;22846;42.654;23.314;2023-04-08T05:42:59;94614.66;;;25.83;47.73
31337;BME280;22846;42.654;23.314;2023-04-08T05:45:26;94620.75;;;25.87;47.97
31337;BME280;22846;42.654;23.314;2023-04-08T05:47:52;94609.78;;;25.87;47.97
31337;BME280;22846;42.654;23.314;2023-04-08T05:50:17;94612.22;;;25.85;47.74
31337;BME280;22846;42.654;23.314;2023-04-08T05:52:43;94619.53;;;25.88;47.98
31337;BME280;22846;42.654;23.314;2023-04-08T05:55:10;94615.28;;;25.87;47.88
31337;BME280;22846;42.654;23.314;2023-04-08T05:57:36;94618.00;;;25.87;48.03
31337;BME280;22846;42.654;23.314;2023-04-08T06:00:03;94607.84;;;25.87;47.91
31337;BME280;22846;42.654;23.314;2023-04-08T06:02:29;94606.31;;;25.86;47.62
31337;BME280;22846;42.654;23.314;2023-04-08T06:04:54;94604.78;;;25.85;47.73
31337;BME280;22846;42.654;23.314;2023-04-08T06:07:20;94611.31;;;25.88;47.83
31337;BME280;22846;42.654;23.314;2023-04-08T06:09:45;94606.59;;;25.88;47.63
31337;BME280;22846;42.654;23.314;2023-04-08T06:12:10;94614.38;;;25.90;47.55
31337;BME280;22846;42.654;23.314;2023-04-08T06:14:36;94608.13;;;25.89;47.63
31337;BME280;22846;42.654;23.314;2023-04-08T06:17:01;94594.72;;;25.82;47.69
31337;BME280;22846;42.654;23.314;2023-04-08T06:19:27;94601.03;;;25.92;47.74
31337;BME280;22846;42.654;23.314;2023-04-08T06:21:52;94591.22;;;25.82;47.61
31337;BME280;22846;42.654;23.314;2023-04-08T06:24:23;94606.03;;;25.93;47.51
31337;BME280;22846;42.654;23.314;2023-04-08T06:26:48;94606.03;;;25.93;47.63
31337;BME280;22846;42.654;23.314;2023-04-08T06:29:14;94603.63;;;25.95;47.56
31337;BME280;22846;42.654;23.314;2023-04-08T06:31:39;94606.34;;;25.95;47.65
31337;BME280;22846;42.654;23.314;2023-04-08T06:34:05;94608.31;;;25.95;47.40
31337;BME280;22846;42.654;23.314;2023-04-08T06:36:30;94598.44;;;25.97;47.46
31337;BME280;22846;42.654;23.314;2023-04-08T06:38:56;94613.66;;;25.98;47.47
31337;BME280;22846;42.654;23.314;2023-04-08T06:41:21;94612.13;;;25.97;47.44
31337;BME280;22846;42.654;23.314;2023-04-08T06:43:47;94612.91;;;25.98;47.47
31337;BME280;22846;42.654;23.314;2023-04-08T06:46:12;94613.97;;;26.00;47.54
31337;BME280;22846;42.654;23.314;2023-04-08T06:48:37;94615.50;;;26.01;47.49
31337;BME280;22846;42.654;23.314;2023-04-08T06:51:03;94617.03;;;26.02;47.16
31337;BME280;22846;42.654;23.314;2023-04-08T06:53:28;94619.31;;;26.04;47.29
31337;BME280;22846;42.654;23.314;2023-04-08T06:55:55;94615.84;;;26.03;47.30
31337;BME280;22846;42.654;23.314;2023-04-08T06:58:20;94616.59;;;26.04;47.38
31337;BME280;22846;42.654;23.314;2023-04-08T07:00:46;94599.34;;;25.94;47.19
31337;BME280;22846;42.654;23.314;2023-04-08T07:03:11;94621.94;;;26.07;47.11
31337;BME280;22846;42.654;23.314;2023-04-08T07:05:37;94620.72;;;26.08;47.28
31337;BME280;22846;42.654;23.314;2023-04-08T07:08:03;94617.97;;;26.08;47.12
31337;BME280;22846;42.654;23.314;2023-04-08T07:10:29;94617.97;;;26.08;47.29
31337;BME280;22846;42.654;23.314;2023-04-08T07:12:54;94616.03;;;26.09;46.94
31337;BME280;22846;42.654;23.314;2023-04-08T07:15:21;94617.78;;;26.03;47.09
31337;BME280;22846;42.654;23.314;2023-04-08T07:17:46;94608.97;;;25.99;47.04
31337;BME280;22846;42.654;23.314;2023-04-08T07:20:12;94608.97;;;25.99;47.03
31337;BME280;22846;42.654;23.314;2023-04-08T07:22:38;94607.63;;;26.03;47.10
31337;BME280;22846;42.654;23.314;2023-04-08T07:25:04;94632.31;;;26.12;47.13
31337;BME280;22846;42.654;23.314;2023-04-08T07:27:29;94631.13;;;26.13;47.04
31337;BME280;22846;42.654;23.314;2023-04-08T07:29:55;94623.31;;;26.12;46.91
31337;BME280;22846;42.654;23.314;2023-04-08T07:32:20;94628.38;;;26.13;46.56
31337;BME280;22846;42.654;23.314;2023-04-08T07:34:46;94628.94;;;26.08;46.53
31337;BME280;22846;42.654;23.314;2023-04-08T07:37:11;94636.41;;;26.08;46.24
31337;BME280;22846;42.654;23.314;2023-04-08T07:39:37;94630.41;;;26.00;46.32
31337;BME280;22846;42.654;23.314;2023-04-08T07:42:02;94629.81;;;25.96;46.19
31337;BME280;22846;42.654;23.314;2023-04-08T07:44:27;94639.84;;;25.99;46.22
31337;BME280;22846;42.654;23.314;2023-04-08T07:46:53;94636.03;;;25.97;46.37
31337;BME280;22846;42.654;23.314;2023-04-08T07:49:18;94643.16;;;25.94;45.93
31337;BME280;22846;42.654;23.314;2023-04-08T07:51:44;94647.38;;;25.86;45.35
31337;BME280;22846;42.654;23.314;2023-04-08T07:54:09;94646.91;;;25.88;46.44
31337;BME280;22846;42.654;23.314;2023-04-08T07:56:36;94646.72;;;25.82;46.26
31337;BME280;22846;42.654;23.314;2023-04-08T07:59:05;94652.53;;;25.84;46.67
31337;BME280;22846;42.654;23.314;2023-04-08T08:01:30;94654.69;;;25.89;46.47
31337;BME280;22846;42.654;23.314;2023-04-08T08:03:59;94669.91;;;25.90;46.56
31337;BME280;22846;42.654;23.314;2023-04-08T08:06:24;94657.28;;;25.93;46.69
31337;BME280;22846;42.654;23.314;2023-04-08T08:08:51;94662.75;;;25.93;46.59
31337;BME280;22846;42.654;23.314;2023-04-08T08:11:17;94663.53;;;25.93;46.69
31337;BME280;22846;42.654;23.314;2023-04-08T08:13:42;94661.34;;;25.88;45.24
31337;BME280;22846;42.654;23.314;2023-04-08T08:16:08;94660.59;;;25.88;45.83
31337;BME280;22846;42.654;23.314;2023-04-08T08:18:36;94650.78;;;25.78;45.40
31337;BME280;22846;42.654;23.314;2023-04-08T08:21:02;94643.03;;;25.76;45.75
31337;BME280;22846;42.654;23.314;2023-04-08T08:23:27;94663.81;;;25.86;45.97
31337;BME280;22846;42.654;23.314;2023-04-08T08:26:04;94661.06;;;25.86;45.47
31337;BME280;22846;42.654;23.314;2023-04-08T08:28:31;94659.06;;;25.87;46.07
31337;BME280;22846;42.654;23.314;2023-04-08T08:30:57;94658.31;;;25.86;46.73
31337;BME280;22846;42.654;23.314;2023-04-08T08:33:23;94672.31;;;25.88;46.66
31337;BME280;22846;42.654;23.314;2023-04-08T08:35:49;94656.53;;;25.92;46.56
31337;BME280;22846;42.654;23.314;2023-04-08T08:38:15;94639.72;;;25.81;46.53
31337;BME280;22846;42.654;23.314;2023-04-08T08:40:42;94644.44;;;25.81;46.29
31337;BME280;22846;42.654;23.314;2023-04-08T08:43:08;94655.78;;;25.92;46.22
31337;BME280;22846;42.654;23.314;2023-04-08T08:45:38;94662.00;;;25.92;46.38
31337;BME280;22846;42.654;23.314;2023-04-08T08:48:04;94662.75;;;25.93;46.24
31337;BME280;22846;42.654;23.314;2023-04-08T08:50:30;94654.94;;;25.82;46.25
31337;BME280;22846;42.654;23.314;2023-04-08T08:52:55;94638.78;;;25.75;46.60
31337;BME280;22846;42.654;23.314;2023-04-08T08:55:21;94658.00;;;25.84;46.59
31337;BME280;22846;42.654;23.314;2023-04-08T08:57:49;94658.75;;;25.85;46.42
31337;BME280;22846;42.654;23.314;2023-04-08T09:00:15;94667.94;;;25.91;46.09
31337;BME280;22846;42.654;23.314;2023-04-08T09:02:42;94655.88;;;25.88;46.19
31337;BME280;22846;42.654;23.314;2023-04-08T09:05:07;94659.06;;;25.87;46.42
31337;BME280;22846;42.654;23.314;2023-04-08T09:07:37;94668.69;;;25.91;46.44
31337;BME280;22846;42.654;23.314;2023-04-08T09:10:06;94666.28;;;25.93;46.25
31337;BME280;22846;42.654;23.314;2023-04-08T09:12:31;94667.50;;;25.92;46.21
31337;BME280;22846;42.654;23.314;2023-04-08T09:17:37;94648.38;;;25.80;46.48
31337;BME280;22846;42.654;23.314;2023-04-08T09:20:10;94664.63;;;25.96;46.43
31337;BME280;22846;42.654;23.314;2023-04-08T09:22:58;94665.41;;;25.96;46.66
31337;BME280;22846;42.654;23.314;2023-04-08T09:25:30;94659.47;;;25.98;46.43
31337;BME280;22846;42.654;23.314;2023-04-08T09:27:59;94655.53;;;25.99;46.60
31337;BME280;22846;42.654;23.314;2023-04-08T09:30:26;94663.28;;;26.00;46.32
31337;BME280;22846;42.654;23.314;2023-04-08T09:32:56;94654.59;;;26.02;46.48
31337;BME280;22846;42.654;23.314;2023-04-08T09:35:23;94646.09;;;26.00;46.54
31337;BME280;22846;42.654;23.314;2023-04-08T09:37:49;94659.19;;;26.05;46.36
31337;BME280;22846;42.654;23.314;2023-04-08T09:40:16;94646.25;;;26.05;46.86
31337;BME280;22846;42.654;23.314;2023-04-08T09:42:45;94652.06;;;26.07;46.67
31337;BME280;22846;42.654;23.314;2023-04-08T09:45:14;94657.84;;;26.09;46.66
31337;BME280;22846;42.654;23.314;2023-04-08T09:47:51;94638.22;;;26.11;46.58
31337;BME280;22846;42.654;23.314;2023-04-08T09:50:23;94641.75;;;26.11;45.79
31337;BME280;22846;42.654;23.314;2023-04-08T09:52:53;94635.06;;;26.12;45.93
31337;BME280;22846;42.654;23.314;2023-04-08T09:55:21;94620.22;;;26.01;46.07
31337;BME280;22846;42.654;23.314;2023-04-08T09:58:00;94633.53;;;26.11;45.82
31337;BME280;22846;42.654;23.314;2023-04-08T10:00:50;94640.84;;;26.14;45.78
31337;BME280;22846;42.654;23.314;2023-04-08T10:05:46;94636.47;;;26.17;46.14
31337;BME280;22846;42.654;23.314;2023-04-08T10:08:13;94634.47;;;26.17;46.09
31337;BME280;22846;42.654;23.314;2023-04-08T10:10:40;94629.00;;;26.17;45.97
31337;BME280;22846;42.654;23.314;2023-04-08T10:13:06;94629.13;;;26.14;45.92
31337;BME280;22846;42.654;23.314;2023-04-08T10:15:33;94631.41;;;26.15;46.18
31337;BME280;22846;42.654;23.314;2023-04-08T10:23:04;94623.00;;;26.10;46.38
31337;BME280;22846;42.654;23.314;2023-04-08T10:30:49;94617.78;;;26.03;46.15
31337;BME280;22846;42.654;23.314;2023-04-08T10:38:24;94615.66;;;25.98;45.96
31337;BME280;22846;42.654;23.314;2023-04-08T10:40:50;94619.91;;;25.99;46.11
31337;BME280;22846;42.654;23.314;2023-04-08T10:43:16;94622.19;;;26.00;46.12
31337;BME280;22846;42.654;23.314;2023-04-08T10:45:43;94598.72;;;25.90;46.20
31337;BME280;22846;42.654;23.314;2023-04-08T10:48:16;94606.97;;;25.99;46.03
31337;BME280;22846;42.654;23.314;2023-04-08T10:50:43;94605.03;;;26.00;46.17
31337;BME280;22846;42.654;23.314;2023-04-08T10:53:09;94602.91;;;26.04;46.00
31337;BME280;22846;42.654;23.314;2023-04-08T10:55:35;94594.69;;;26.04;46.16
31337;BME280;22846;42.654;23.314;2023-04-08T10:58:08;94584.13;;;25.93;46.36
31337;BME280;22846;42.654;23.314;2023-04-08T11:00:39;94594.34;;;26.02;46.14
31337;BME280;22846;42.654;23.314;2023-04-08T11:03:09;94583.53;;;25.98;46.34
31337;BME280;22846;42.654;23.314;2023-04-08T11:05:35;94577.59;;;25.91;46.18
31337;BME280;22846;42.654;23.314;2023-04-08T11:08:04;94583.53;;;25.98;45.99
31337;BME280;22846;42.654;23.314;2023-04-08T11:10:35;94572.72;;;25.95;46.10
31337;BME280;22846;42.654;23.314;2023-04-08T11:13:05;94588.59;;;26.00;46.35
31337;BME280;22846;42.654;23.314;2023-04-08T11:15:32;94580.19;;;25.94;46.15
31337;BME280;22846;42.654;23.314;2023-04-08T11:17:58;94577.25;;;25.89;45.52
31337;BME280;22846;42.654;23.314;2023-04-08T11:20:24;94571.31;;;25.90;45.63
31337;BME280;22846;42.654;23.314;2023-04-08T11:22:50;94567.25;;;25.95;45.46
31337;BME280;22846;42.654;23.314;2023-04-08T11:25:16;94552.28;;;25.87;45.95
31337;BME280;22846;42.654;23.314;2023-04-08T11:27:41;94566.34;;;25.98;45.70
31337;BME280;22846;42.654;23.314;2023-04-08T11:30:08;94555.97;;;25.93;45.89
31337;BME280;22846;42.654;23.314;2023-04-08T11:32:35;94560.50;;;25.87;45.72
31337;BME280;22846;42.654;23.314;2023-04-08T11:35:03;94552.09;;;25.81;46.13
31337;BME280;22846;42.654;23.314;2023-04-08T11:37:39;94554.75;;;25.72;45.93
31337;BME280;22846;42.654;23.314;2023-04-08T11:40:09;94562.03;;;25.66;45.97
31337;BME280;22846;42.654;23.314;2023-04-08T11:42:36;94544.81;;;25.57;46.17
31337;BME280;22846;42.654;23.314;2023-04-08T11:45:09;94541.28;;;25.57;46.23
31337;BME280;22846;42.654;23.314;2023-04-08T11:47:35;94538.34;;;25.51;46.60
31337;BME280;22846;42.654;23.314;2023-04-08T11:50:00;94537.28;;;25.49;46.88
31337;BME280;22846;42.654;23.314;2023-04-08T11:55:05;94525.47;;;25.30;46.54
31337;BME280;22846;42.654;23.314;2023-04-08T11:57:31;94548.28;;;25.36;46.81
31337;BME280;22846;42.654;23.314;2023-04-08T11:59:56;94536.28;;;25.34;46.87
31337;BME280;22846;42.654;23.314;2023-04-08T12:02:22;94527.09;;;25.28;46.61
31337;BME280;22846;42.654;23.314;2023-04-08T12:04:48;94522.84;;;25.27;46.49
31337;BME280;22846;42.654;23.314;2023-04-08T12:07:13;94534.88;;;25.29;46.52
31337;BME280;22846;42.654;23.314;2023-04-08T12:09:39;94520.88;;;25.27;46.55
31337;BME280;22846;42.654;23.314;2023-04-08T12:12:04;94515.19;;;25.22;46.95
31337;BME280;22846;42.654;23.314;2023-04-08T12:14:30;94521.00;;;25.24;46.51
31337;BME280;22846;42.654;23.314;2023-04-08T12:16:55;94503.31;;;25.16;46.68
31337;BME280;22846;42.654;23.314;2023-04-08T12:19:21;94513.66;;;25.21;46.84
31337;BME280;22846;42.654;23.314;2023-04-08T12:21:46;94512.59;;;25.18;46.60
31337;BME280;22846;42.654;23.314;2023-04-08T12:24:11;94506.06;;;25.16;47.13
31337;BME280;22846;42.654;23.314;2023-04-08T12:26:37;94505.59;;;25.17;46.73
31337;BME280;22846;42.654;23.314;2023-04-08T12:29:02;94496.91;;;25.10;47.14
31337;BME280;22846;42.654;23.314;2023-04-08T12:31:28;94495.25;;;25.12;46.72
31337;BME280;22846;42.654;23.314;2023-04-08T12:33:53;94506.59;;;25.11;47.10
31337;BME280;22846;42.654;23.314;2023-04-08T12:36:18;94502.75;;;25.08;47.01
31337;BME280;22846;42.654;23.314;2023-04-08T12:38:44;94490.09;;;25.02;46.91
31337;BME280;22846;42.654;23.314;2023-04-08T12:41:09;94487.28;;;24.93;47.28
31337;BME280;22846;42.654;23.314;2023-04-08T12:43:34;94499.53;;;25.01;47.37
31337;BME280;22846;42.654;23.314;2023-04-08T12:46:00;94485.13;;;24.88;46.97
31337;BME280;22846;42.654;23.314;2023-04-08T12:48:26;94495.19;;;24.91;47.00
31337;BME280;22846;42.654;23.314;2023-04-08T12:50:52;94502.50;;;24.94;47.06
31337;BME280;22846;42.654;23.314;2023-04-08T12:53:17;94505.69;;;24.92;47.07
31337;BME280;22846;42.654;23.314;2023-04-08T12:55:43;94512.81;;;24.90;47.12
31337;BME280;22846;42.654;23.314;2023-04-08T12:58:08;94497.19;;;24.78;47.22
31337;BME280;22846;42.654;23.314;2023-04-08T13:00:34;94507.88;;;24.85;47.24
31337;BME280;22846;42.654;23.314;2023-04-08T13:03:02;94513.34;;;24.85;47.25
31337;BME280;22846;42.654;23.314;2023-04-08T13:05:28;94511.50;;;24.82;47.36
31337;BME280;22846;42.654;23.314;2023-04-08T13:07:53;94496.69;;;24.71;47.32
31337;BME280;22846;42.654;23.314;2023-04-08T13:10:18;94509.34;;;24.77;47.69
31337;BME280;22846;42.654;23.314;2023-04-08T13:12:44;94519.06;;;24.78;47.60